Terminal Aerodrome Forecast
Issued by NWS Amarillo, TX

Home | Current Version | Previous Version | Text Only | Print | Product List | Glossary On
Versions: 1 2 3 4 5 6 7 8 9 10 11 12 13 14 15
463
FTUS44 KAMA 270116 AAA
TAFDHT
TAF AMD
KDHT 270116Z 2701/2724 08011KT P6SM SCT070 SCT120 BKN300
      TEMPO 2701/2704 5SM TSRA OVC040CB
     FM270400 02013KT P6SM SCT060 OVC300
      TEMPO 2704/2708 5SM TSRA OVC040CB
     FM271200 03009KT P6SM BKN100 OVC300
     FM271600 06011KT P6SM BKN060 OVC300=

USA.gov is the U.S. government's official web portal to all federal, state and local government web resources and services.